Time;durP1;ratioP1;P1;durP2;ratioP2;P2;SDS_P1;SDS_P2;PMS_P1;PMS_P2;Temp;Humidity;BMP_temperature;BMP_pressure;BME280_temperature;BME280_humidity;BME280_pressure;Samples;Min_cycle;Max_cycle;Signal;HPM_P1;HPM_P2
2021/06/07 00:00:15;;;;;;;;;;;;;;;;;;2145477;66;1215;-69
2021/06/07 00:02:40;;;;;;;;;;;;;;;;;;2141964;66;1959;-69
2021/06/07 00:05:06;;;;;;;;;;;;;;;;;;2145427;66;1170;-66
2021/06/07 00:07:31;;;;;;;;;;;;;;;;;;2144144;59;1921;-66
2021/06/07 00:09:56;;;;;;;;;;;;;;;;;;2144818;66;1164;-68
2021/06/07 00:12:22;;;;;;;;;;;;;;;;;;2145377;66;1219;-68
2021/06/07 00:14:47;;;;;;;;;;;;;;;;;;2145165;59;1270;-68
2021/06/07 00:17:12;;;;;;;;;;;;;;;;;;2144807;66;1131;-68
2021/06/07 00:19:38;;;;;;;;;;;;;;;;;;2144157;59;1438;-68
2021/06/07 00:22:04;;;;;;;;;;;;;;;;;;2145301;66;1254;-68
2021/06/07 00:24:29;;;;;;;;;;;;;;;;;;2143121;59;1635;-67
2021/06/07 00:26:54;;;;;;;;;;;;;;;;;;2143793;66;1924;-67
2021/06/07 00:29:19;;;;;;;;;;;;;;;;;;2143878;66;1212;-67
2021/06/07 00:31:45;;;;;;;;;;;;;;;;;;2144796;66;1379;-67
2021/06/07 00:34:10;;;;;;;;;;;;;;;;;;2145657;66;1252;-67
2021/06/07 00:36:36;;;;;;;;;;;;;;;;;;2145337;66;1084;-67
2021/06/07 00:39:03;;;;;;;;;;;;;;;;;;2145075;66;1208;-68
2021/06/07 00:41:29;;;;;;;;;;;;;;;;;;2144947;66;1274;-68
2021/06/07 00:43:56;;;;;;;;;;;;;;;;;;2143926;59;1178;-68
2021/06/07 00:46:21;;;;;;;;;;;;;;;;;;2143870;66;1282;-68
2021/06/07 00:48:47;;;;;;;;;;;;;;;;;;2144077;59;1918;-67
2021/06/07 00:51:12;;;;;;;;;;;;;;;;;;2145151;66;1224;-67
2021/06/07 00:53:37;;;;;;;;;;;;;;;;;;2144555;66;1190;-68
2021/06/07 00:56:08;;;;;;;;;;;;;;;;;;2145354;66;1230;-68
2021/06/07 00:58:35;;;;;;;;;;;;;;;;;;2144853;66;1049;-68
2021/06/07 01:01:00;;;;;;;;;;;;;;;;;;2141626;67;1234;-68
2021/06/07 01:03:26;;;;;;;;;;;;;;;;;;2144924;66;1223;-68
2021/06/07 01:05:52;;;;;;;;;;;;;;;;;;2145205;59;1186;-68
2021/06/07 01:08:18;;;;;;;;;;;;;;;;;;2144365;66;1944;-68
2021/06/07 01:10:43;;;;;;;;;;;;;;;;;;2144447;66;1318;-68
2021/06/07 01:13:09;;;;;;;;;;;;;;;;;;2145023;66;1219;-68
2021/06/07 01:15:34;;;;;;;;;;;;;;;;;;2144214;59;1271;-68
2021/06/07 01:17:59;;;;;;;;;;;;;;;;;;2144849;59;1336;-68
2021/06/07 01:20:25;;;;;;;;;;;;;;;;;;2144317;66;1176;-68
2021/06/07 01:22:51;;;;;;;;;;;;;;;;;;2144313;66;1272;-67
2021/06/07 01:25:20;;;;;;;;;;;;;;;;;;2144306;66;1443;-68
2021/06/07 01:27:46;;;;;;;;;;;;;;;;;;2144378;66;1984;-68
2021/06/07 01:30:13;;;;;;;;;;;;;;;;;;2144538;59;1261;-67
2021/06/07 01:32:39;;;;;;;;;;;;;;;;;;2146373;66;1270;-67
2021/06/07 01:35:06;;;;;;;;;;;;;;;;;;2145638;66;1145;-67
2021/06/07 01:37:31;;;;;;;;;;;;;;;;;;2145900;66;1310;-67
2021/06/07 01:39:56;;;;;;;;;;;;;;;;;;2145061;66;1053;-67
2021/06/07 01:42:22;;;;;;;;;;;;;;;;;;2146169;58;1203;-68
2021/06/07 01:44:47;;;;;;;;;;;;;;;;;;2144216;66;1214;-68
2021/06/07 01:47:12;;;;;;;;;;;;;;;;;;2143492;66;1970;-67
2021/06/07 01:49:37;;;;;;;;;;;;;;;;;;2141404;66;1460;-67
2021/06/07 01:52:03;;;;;;;;;;;;;;;;;;2145013;66;1266;-67
2021/06/07 01:54:28;;;;;;;;;;;;;;;;;;2144781;66;1190;-67
2021/06/07 01:56:53;;;;;;;;;;;;;;;;;;2146452;66;1158;-67
2021/06/07 01:59:18;;;;;;;;;;;;;;;;;;2144896;66;1171;-67
2021/06/07 02:01:43;;;;;;;;;;;;;;;;;;2146056;66;1034;-67
2021/06/07 02:04:08;;;;;;;;;;;;;;;;;;2144655;66;1210;-67
2021/06/07 02:06:34;;;;;;;;;;;;;;;;;;2145817;59;1382;-67
2021/06/07 02:08:59;;;;;;;;;;;;;;;;;;2145337;66;1939;-68
2021/06/07 02:11:26;;;;;;;;;;;;;;;;;;2145606;66;1047;-68
2021/06/07 02:13:52;;;;;;;;;;;;;;;;;;2145619;66;1198;-67
2021/06/07 02:16:20;;;;;;;;;;;;;;;;;;2143102;59;1284;-68
2021/06/07 02:18:46;;;;;;;;;;;;;;;;;;2146290;66;1143;-68
2021/06/07 02:21:12;;;;;;;;;;;;;;;;;;2145309;66;1159;-68
2021/06/07 02:23:38;;;;;;;;;;;;;;;;;;2146102;66;1287;-68
2021/06/07 02:26:04;;;;;;;;;;;;;;;;;;2142107;59;1749;-68
2021/06/07 02:28:29;;;;;;;;;;;;;;;;;;2141569;66;1932;-68
2021/06/07 02:30:55;;;;;;;;;;;;;;;;;;2144393;66;1153;-68
2021/06/07 02:33:20;;;;;;;;;;;;;;;;;;2145255;66;1222;-69
2021/06/07 02:35:45;;;;;;;;;;;;;;;;;;2144898;66;1163;-69
2021/06/07 02:38:11;;;;;;;;;;;;;;;;;;2146000;66;1171;-68
2021/06/07 02:40:37;;;;;;;;;;;;;;;;;;2144557;66;1143;-69
2021/06/07 02:43:03;;;;;;;;;;;;;;;;;;2142714;59;1300;-68
2021/06/07 02:45:29;;;;;;;;;;;;;;;;;;2142638;66;1179;-68
2021/06/07 02:47:55;;;;;;;;;;;;;;;;;;2143653;59;1932;-69
2021/06/07 02:50:23;;;;;;;;;;;;;;;;;;2146667;66;1180;-69
2021/06/07 02:52:49;;;;;;;;;;;;;;;;;;2145739;66;1216;-68
2021/06/07 02:55:14;;;;;;;;;;;;;;;;;;2146507;66;1483;-68
2021/06/07 02:57:39;;;;;;;;;;;;;;;;;;2145757;66;1138;-68
2021/06/07 03:00:04;;;;;;;;;;;;;;;;;;2146301;66;1161;-68
2021/06/07 03:02:30;;;;;;;;;;;;;;;;;;2145873;66;1291;-68
2021/06/07 03:04:55;;;;;;;;;;;;;;;;;;2145700;66;1135;-67
2021/06/07 03:07:20;;;;;;;;;;;;;;;;;;2145350;66;1915;-67
2021/06/07 03:09:45;;;;;;;;;;;;;;;;;;2143861;66;1165;-68
2021/06/07 03:12:10;;;;;;;;;;;;;;;;;;2145025;66;1246;-68
2021/06/07 03:14:37;;;;;;;;;;;;;;;;;;2145755;66;1135;-68
2021/06/07 03:17:03;;;;;;;;;;;;;;;;;;2145645;59;1491;-68
2021/06/07 03:19:28;;;;;;;;;;;;;;;;;;2145082;59;1229;-68
2021/06/07 03:21:53;;;;;;;;;;;;;;;;;;2145476;66;1167;-68
2021/06/07 03:24:18;;;;;;;;;;;;;;;;;;2145408;66;1272;-68
2021/06/07 03:26:43;;;;;;;;;;;;;;;;;;2141757;66;1927;-68
2021/06/07 03:29:08;;;;;;;;;;;;;;;;;;2145711;59;1283;-68
2021/06/07 03:31:34;;;;;;;;;;;;;;;;;;2140686;66;1160;-68
2021/06/07 03:33:59;;;;;;;;;;;;;;;;;;2145323;66;1273;-68
2021/06/07 03:36:24;;;;;;;;;;;;;;;;;;2145774;66;1219;-68
2021/06/07 03:38:50;;;;;;;;;;;;;;;;;;2145608;66;1195;-68
2021/06/07 03:41:15;;;;;;;;;;;;;;;;;;2145355;66;1176;-69
2021/06/07 03:43:41;;;;;;;;;;;;;;;;;;2145771;59;1233;-68
2021/06/07 03:46:06;;;;;;;;;;;;;;;;;;2146633;66;1180;-68
2021/06/07 03:48:31;;;;;;;;;;;;;;;;;;2145394;66;1927;-69
2021/06/07 03:50:57;;;;;;;;;;;;;;;;;;2144786;66;1402;-69
2021/06/07 03:53:22;;;;;;;;;;;;;;;;;;2144993;66;1235;-69
2021/06/07 03:55:48;;;;;;;;;;;;;;;;;;2145052;66;1161;-69
2021/06/07 03:58:13;;;;;;;;;;;;;;;;;;2145436;66;1131;-69
2021/06/07 04:00:39;;;;;;;;;;;;;;;;;;2145331;66;1161;-69
2021/06/07 04:03:05;;;;;;;;;;;;;;;;;;2145274;66;1287;-69
2021/06/07 04:05:31;;;;;;;;;;;;;;;;;;2145314;66;1139;-69
2021/06/07 04:07:56;;;;;;;;;;;;;;;;;;2143724;59;1936;-69
2021/06/07 04:10:22;;;;;;;;;;;;;;;;;;2145951;66;1153;-69
2021/06/07 04:12:48;;;;;;;;;;;;;;;;;;2145769;66;1286;-69
2021/06/07 04:15:15;;;;;;;;;;;;;;;;;;2145170;59;1266;-70
2021/06/07 04:17:40;;;;;;;;;;;;;;;;;;2141753;66;1454;-69
2021/06/07 04:20:07;;;;;;;;;;;;;;;;;;2144923;66;1178;-69
2021/06/07 04:22:33;;;;;;;;;;;;;;;;;;2144094;59;1551;-69
2021/06/07 04:24:58;;;;;;;;;;;;;;;;;;2145102;66;1133;-69
2021/06/07 04:27:23;;;;;;;;;;;;;;;;;;2144560;66;1926;-69
2021/06/07 04:29:48;;;;;;;;;;;;;;;;;;2144016;66;1287;-69
2021/06/07 04:32:13;;;;;;;;;;;;;;;;;;2144376;66;1399;-69
2021/06/07 04:34:38;;;;;;;;;;;;;;;;;;2143222;59;2122;-69
2021/06/07 04:37:04;;;;;;;;;;;;;;;;;;2144413;59;1277;-69
2021/06/07 04:39:30;;;;;;;;;;;;;;;;;;2144963;66;1127;-69
2021/06/07 04:41:55;;;;;;;;;;;;;;;;;;2145577;59;1197;-69
2021/06/07 04:44:20;;;;;;;;;;;;;;;;;;2146243;53;3535;-69
2021/06/07 04:46:45;;;;;;;;;;;;;;;;;;2139035;59;1243;-69
2021/06/07 04:49:11;;;;;;;;;;;;;;;;;;2137722;59;2027;-72
2021/06/07 04:51:36;;;;;;;;;;;;;;;;;;2141162;59;1174;-67
2021/06/07 04:54:01;;;;;;;;;;;;;;;;;;2138423;67;1658;-66
2021/06/07 04:56:27;;;;;;;;;;;;;;;;;;2138160;67;1790;-68
2021/06/07 04:58:52;;;;;;;;;;;;;;;;;;2141794;59;1158;-67
2021/06/07 05:01:17;;;;;;;;;;;;;;;;;;2143090;59;1389;-71
2021/06/07 05:03:42;;;;;;;;;;;;;;;;;;2142328;66;1260;-68
2021/06/07 05:06:07;;;;;;;;;;;;;;;;;;2142731;66;1148;-70
2021/06/07 05:08:33;;;;;;;;;;;;;;;;;;2140863;66;1992;-67
2021/06/07 05:10:58;;;;;;;;;;;;;;;;;;2139146;66;1741;-67
2021/06/07 05:13:23;;;;;;;;;;;;;;;;;;2142664;66;1265;-68
2021/06/07 05:15:49;;;;;;;;;;;;;;;;;;2143377;66;1958;-67
2021/06/07 05:18:14;;;;;;;;;;;;;;;;;;2139250;59;1223;-69
2021/06/07 05:20:40;;;;;;;;;;;;;;;;;;2141708;66;1138;-71
2021/06/07 05:23:07;;;;;;;;;;;;;;;;;;2143321;66;1189;-67
2021/06/07 05:25:33;;;;;;;;;;;;;;;;;;2141983;66;1162;-67
2021/06/07 05:27:59;;;;;;;;;;;;;;;;;;2141618;66;1962;-68
2021/06/07 05:30:26;;;;;;;;;;;;;;;;;;2142363;59;1524;-69
2021/06/07 05:32:52;;;;;;;;;;;;;;;;;;2143566;66;1207;-68
2021/06/07 05:35:18;;;;;;;;;;;;;;;;;;2142804;66;1299;-67
2021/06/07 05:37:44;;;;;;;;;;;;;;;;;;2141570;66;1205;-67
2021/06/07 05:40:11;;;;;;;;;;;;;;;;;;2142384;66;1224;-71
2021/06/07 05:42:37;;;;;;;;;;;;;;;;;;2142065;66;1192;-68
2021/06/07 05:45:04;;;;;;;;;;;;;;;;;;2141758;59;1196;-71
2021/06/07 05:47:29;;;;;;;;;;;;;;;;;;2141788;66;1936;-68
2021/06/07 05:49:54;;;;;;;;;;;;;;;;;;2135967;66;1436;-69
2021/06/07 05:52:19;;;;;;;;;;;;;;;;;;2142002;66;1176;-68
2021/06/07 05:54:44;;;;;;;;;;;;;;;;;;2141797;66;1258;-66
2021/06/07 05:57:10;;;;;;;;;;;;;;;;;;2142687;66;1225;-70
2021/06/07 05:59:36;;;;;;;;;;;;;;;;;;2141695;66;1165;-70
2021/06/07 06:02:05;;;;;;;;;;;;;;;;;;2142431;66;1183;-67
2021/06/07 06:04:30;;;;;;;;;;;;;;;;;;2140561;59;1289;-67
2021/06/07 06:06:55;;;;;;;;;;;;;;;;;;2141134;59;1971;-72
2021/06/07 06:09:20;;;;;;;;;;;;;;;;;;2142655;66;1223;-69
2021/06/07 06:11:46;;;;;;;;;;;;;;;;;;2142100;66;1163;-68
2021/06/07 06:14:11;;;;;;;;;;;;;;;;;;2142802;66;1380;-68
2021/06/07 06:16:36;;;;;;;;;;;;;;;;;;2141484;59;1485;-67
2021/06/07 06:19:02;;;;;;;;;;;;;;;;;;2142631;59;1234;-66
2021/06/07 06:21:27;;;;;;;;;;;;;;;;;;2142179;66;1677;-67
2021/06/07 06:23:56;;;;;;;;;;;;;;;;;;2143042;66;1204;-67
2021/06/07 06:26:22;;;;;;;;;;;;;;;;;;2142148;66;1176;-67
2021/06/07 06:28:48;;;;;;;;;;;;;;;;;;2139511;67;1928;-67
2021/06/07 06:31:15;;;;;;;;;;;;;;;;;;2140105;67;1231;-68
2021/06/07 06:33:40;;;;;;;;;;;;;;;;;;2142826;66;1250;-67
2021/06/07 06:36:05;;;;;;;;;;;;;;;;;;2140039;59;1522;-67
2021/06/07 06:38:31;;;;;;;;;;;;;;;;;;2141526;66;1191;-69
2021/06/07 06:40:56;;;;;;;;;;;;;;;;;;2140606;66;1041;-70
2021/06/07 06:43:22;;;;;;;;;;;;;;;;;;2141962;59;1288;-67
2021/06/07 06:45:48;;;;;;;;;;;;;;;;;;2141944;66;1310;-67
2021/06/07 06:48:13;;;;;;;;;;;;;;;;;;2141631;59;1924;-71
2021/06/07 06:50:39;;;;;;;;;;;;;;;;;;2141882;66;1175;-67
2021/06/07 06:53:06;;;;;;;;;;;;;;;;;;2142120;66;1273;-69
2021/06/07 06:55:31;;;;;;;;;;;;;;;;;;2141738;66;1293;-70
2021/06/07 06:57:57;;;;;;;;;;;;;;;;;;2141983;59;1155;-67
2021/06/07 07:00:22;;;;;;;;;;;;;;;;;;2141683;66;1176;-68
2021/06/07 07:02:47;;;;;;;;;;;;;;;;;;2142030;66;1261;-70
2021/06/07 07:05:13;;;;;;;;;;;;;;;;;;2142330;66;1808;-68
2021/06/07 07:07:38;;;;;;;;;;;;;;;;;;2141148;59;1927;-69
2021/06/07 07:10:04;;;;;;;;;;;;;;;;;;2141114;59;1390;-67
2021/06/07 07:12:29;;;;;;;;;;;;;;;;;;2140317;59;1392;-67
2021/06/07 07:14:54;;;;;;;;;;;;;;;;;;2137868;59;1591;-68
2021/06/07 07:17:19;;;;;;;;;;;;;;;;;;2140273;66;1153;-70
2021/06/07 07:19:46;;;;;;;;;;;;;;;;;;2141147;66;1297;-69
2021/06/07 07:22:12;;;;;;;;;;;;;;;;;;2140766;66;1081;-67
2021/06/07 07:24:39;;;;;;;;;;;;;;;;;;2139948;67;1198;-69
2021/06/07 07:27:05;;;;;;;;;;;;;;;;;;2141183;59;1992;-70
2021/06/07 07:29:32;;;;;;;;;;;;;;;;;;2140324;59;2059;-70
2021/06/07 07:31:57;;;;;;;;;;;;;;;;;;2139470;59;1832;-67
2021/06/07 07:34:22;;;;;;;;;;;;;;;;;;2139642;59;1697;-69
2021/06/07 07:36:48;;;;;;;;;;;;;;;;;;2140409;59;1377;-68
2021/06/07 07:39:13;;;;;;;;;;;;;;;;;;2140629;66;1104;-71
2021/06/07 07:41:38;;;;;;;;;;;;;;;;;;2140985;66;1313;-69
2021/06/07 07:44:03;;;;;;;;;;;;;;;;;;2141004;59;1949;-68
2021/06/07 07:46:29;;;;;;;;;;;;;;;;;;2136372;59;1846;-70
2021/06/07 07:48:54;;;;;;;;;;;;;;;;;;2140672;66;1923;-68
2021/06/07 07:51:19;;;;;;;;;;;;;;;;;;2140483;66;1236;-68
2021/06/07 07:53:44;;;;;;;;;;;;;;;;;;2142442;66;1220;-68
2021/06/07 07:56:09;;;;;;;;;;;;;;;;;;2142279;66;1150;-68
2021/06/07 07:58:35;;;;;;;;;;;;;;;;;;2142184;66;1226;-68
2021/06/07 08:01:00;;;;;;;;;;;;;;;;;;2142238;66;1194;-68
2021/06/07 08:03:26;;;;;;;;;;;;;;;;;;2141875;66;1319;-68
2021/06/07 08:05:51;;;;;;;;;;;;;;;;;;2141776;66;1052;-69
2021/06/07 08:08:16;;;;;;;;;;;;;;;;;;2141637;59;1935;-68
2021/06/07 08:10:41;;;;;;;;;;;;;;;;;;2140880;66;1133;-69
2021/06/07 08:13:07;;;;;;;;;;;;;;;;;;2142261;66;1201;-69
2021/06/07 08:15:34;;;;;;;;;;;;;;;;;;2140019;59;1279;-69
2021/06/07 08:17:59;;;;;;;;;;;;;;;;;;2140633;59;1571;-69
2021/06/07 08:20:24;;;;;;;;;;;;;;;;;;2140064;67;1289;-68
2021/06/07 08:22:50;;;;;;;;;;;;;;;;;;2140701;67;1225;-69
2021/06/07 08:25:16;;;;;;;;;;;;;;;;;;2139958;67;1160;-68
2021/06/07 08:27:42;;;;;;;;;;;;;;;;;;2140135;67;1980;-69
2021/06/07 08:30:08;;;;;;;;;;;;;;;;;;2137162;59;2152;-68
2021/06/07 08:32:33;;;;;;;;;;;;;;;;;;2139766;67;1204;-68
2021/06/07 08:34:58;;;;;;;;;;;;;;;;;;2140642;66;1214;-68
2021/06/07 08:37:24;;;;;;;;;;;;;;;;;;2141002;66;1224;-69
2021/06/07 08:39:49;;;;;;;;;;;;;;;;;;2143997;66;1307;-69
2021/06/07 08:42:14;;;;;;;;;;;;;;;;;;2143105;66;1149;-68
2021/06/07 08:44:40;;;;;;;;;;;;;;;;;;2141877;66;1225;-69
2021/06/07 08:47:05;;;;;;;;;;;;;;;;;;2139288;66;1987;-68
2021/06/07 08:49:31;;;;;;;;;;;;;;;;;;2142967;66;1176;-68
2021/06/07 08:51:56;;;;;;;;;;;;;;;;;;2143045;66;1161;-68
2021/06/07 08:54:21;;;;;;;;;;;;;;;;;;2142162;66;1308;-69
2021/06/07 08:56:46;;;;;;;;;;;;;;;;;;2143033;66;1147;-69
2021/06/07 08:59:12;;;;;;;;;;;;;;;;;;2142154;66;1163;-68
2021/06/07 09:01:37;;;;;;;;;;;;;;;;;;2143016;66;1159;-69
2021/06/07 09:04:09;;;;;;;;;;;;;;;;;;2138622;67;1702;-68
2021/06/07 09:06:37;;;;;;;;;;;;;;;;;;2143128;66;1211;-69
2021/06/07 09:09:06;;;;;;;;;;;;;;;;;;2139194;66;1984;-69
2021/06/07 09:11:41;;;;;;;;;;;;;;;;;;2140687;67;1165;-69
2021/06/07 09:14:39;;;;;;;;;;;;;;;;;;2142539;66;1859;-69
2021/06/07 09:17:23;;;;;;;;;;;;;;;;;;2135900;59;1627;-69
2021/06/07 09:20:07;;;;;;;;;;;;;;;;;;2142232;66;1180;-69
2021/06/07 09:22:32;;;;;;;;;;;;;;;;;;2142097;66;1231;-69
2021/06/07 09:25:02;;;;;;;;;;;;;;;;;;2141656;66;1195;-69
2021/06/07 09:27:27;;;;;;;;;;;;;;;;;;2141489;66;1989;-69
2021/06/07 09:29:53;;;;;;;;;;;;;;;;;;2140612;59;1281;-69
2021/06/07 09:32:19;;;;;;;;;;;;;;;;;;2141188;66;1150;-69
2021/06/07 09:34:45;;;;;;;;;;;;;;;;;;2142575;66;1213;-69
2021/06/07 09:37:11;;;;;;;;;;;;;;;;;;2141785;66;1180;-69
2021/06/07 09:39:38;;;;;;;;;;;;;;;;;;2142579;66;1154;-69
2021/06/07 09:42:12;;;;;;;;;;;;;;;;;;2141869;66;1227;-69
2021/06/07 09:44:41;;;;;;;;;;;;;;;;;;2142068;59;1158;-69
2021/06/07 09:47:11;;;;;;;;;;;;;;;;;;2139618;66;1935;-69
2021/06/07 09:49:42;;;;;;;;;;;;;;;;;;2139545;67;1415;-69
2021/06/07 09:52:09;;;;;;;;;;;;;;;;;;2140429;67;1077;-69
2021/06/07 09:54:34;;;;;;;;;;;;;;;;;;2140525;59;1677;-69
2021/06/07 09:57:01;;;;;;;;;;;;;;;;;;2142021;66;1211;-69
2021/06/07 09:59:27;;;;;;;;;;;;;;;;;;2141942;66;1254;-69
2021/06/07 10:01:52;;;;;;;;;;;;;;;;;;2141085;66;1155;-70
2021/06/07 10:04:17;;;;;;;;;;;;;;;;;;2142228;66;1201;-69
2021/06/07 10:06:43;;;;;;;;;;;;;;;;;;2142731;59;1474;-69
2021/06/07 10:09:09;;;;;;;;;;;;;;;;;;2142558;66;1931;-69
2021/06/07 10:11:36;;;;;;;;;;;;;;;;;;2142306;66;1129;-69
2021/06/07 10:14:09;;;;;;;;;;;;;;;;;;2141767;66;1272;-69
2021/06/07 10:16:35;;;;;;;;;;;;;;;;;;2141733;59;1203;-70
2021/06/07 10:19:05;;;;;;;;;;;;;;;;;;2142239;66;1197;-70
2021/06/07 10:21:30;;;;;;;;;;;;;;;;;;2142527;66;1170;-69
2021/06/07 10:23:56;;;;;;;;;;;;;;;;;;2142446;66;1267;-68
2021/06/07 10:26:21;;;;;;;;;;;;;;;;;;2142302;66;1068;-69
2021/06/07 10:28:51;;;;;;;;;;;;;;;;;;2140916;66;1943;-70
2021/06/07 10:31:18;;;;;;;;;;;;;;;;;;2140004;67;1131;-70
2021/06/07 10:33:54;;;;;;;;;;;;;;;;;;2140955;66;1277;-70
2021/06/07 10:36:19;;;;;;;;;;;;;;;;;;2140535;66;1067;-69
2021/06/07 10:38:45;;;;;;;;;;;;;;;;;;2142123;66;1152;-69
2021/06/07 10:41:24;;;;;;;;;;;;;;;;;;2138219;67;1263;-70
2021/06/07 10:43:53;;;;;;;;;;;;;;;;;;2153040;53;2214;-69
2021/06/07 10:46:32;;;;;;;;;;;;;;;;;;2142925;59;1763;-69
2021/06/07 10:48:59;;;;;;;;;;;;;;;;;;2144523;58;1928;-69
2021/06/07 10:51:26;;;;;;;;;;;;;;;;;;2146079;58;1249;-69
2021/06/07 10:53:53;;;;;;;;;;;;;;;;;;2146083;66;1253;-69
2021/06/07 10:56:24;;;;;;;;;;;;;;;;;;2145334;66;1170;-69
2021/06/07 10:58:53;;;;;;;;;;;;;;;;;;2146143;66;1136;-69
2021/06/07 11:01:19;;;;;;;;;;;;;;;;;;2144623;66;1157;-69
2021/06/07 11:03:57;;;;;;;;;;;;;;;;;;2144773;66;1745;-69
2021/06/07 11:06:23;;;;;;;;;;;;;;;;;;2144183;59;1253;-69
2021/06/07 11:09:03;;;;;;;;;;;;;;;;;;2145826;66;1964;-68
2021/06/07 11:11:40;;;;;;;;;;;;;;;;;;2144138;66;1148;-68
2021/06/07 11:14:06;;;;;;;;;;;;;;;;;;2142855;66;2344;-68
2021/06/07 11:16:32;;;;;;;;;;;;;;;;;;2144561;59;1542;-70
2021/06/07 11:18:58;;;;;;;;;;;;;;;;;;2144826;59;1170;-70
2021/06/07 11:21:28;;;;;;;;;;;;;;;;;;2145431;66;1202;-67
2021/06/07 11:23:53;;;;;;;;;;;;;;;;;;2146370;59;1224;-67
2021/06/07 11:26:21;;;;;;;;;;;;;;;;;;2145584;66;1148;-70
2021/06/07 11:29:01;;;;;;;;;;;;;;;;;;2142624;59;1921;-67
2021/06/07 11:31:32;;;;;;;;;;;;;;;;;;2143991;66;1181;-67
2021/06/07 11:33:59;;;;;;;;;;;;;;;;;;2145692;66;1230;-69
2021/06/07 11:36:43;;;;;;;;;;;;;;;;;;2145733;66;1168;-70
2021/06/07 11:39:12;;;;;;;;;;;;;;;;;;2144786;62;1202;-70
2021/06/07 11:41:51;;;;;;;;;;;;;;;;;;2145795;66;1206;-69
2021/06/07 11:44:17;;;;;;;;;;;;;;;;;;2143843;66;1269;-70
2021/06/07 11:46:42;;;;;;;;;;;;;;;;;;2144738;66;1351;-69
2021/06/07 11:49:08;;;;;;;;;;;;;;;;;;2145032;66;1921;-69
2021/06/07 11:51:35;;;;;;;;;;;;;;;;;;2145457;66;1353;-69
2021/06/07 11:54:20;;;;;;;;;;;;;;;;;;2144646;59;2024;-69
2021/06/07 11:56:56;;;;;;;;;;;;;;;;;;2145986;66;1485;-69
2021/06/07 11:59:26;;;;;;;;;;;;;;;;;;2140885;66;1642;-69
2021/06/07 12:01:51;;;;;;;;;;;;;;;;;;2146146;66;1069;-69
2021/06/07 12:04:23;;;;;;;;;;;;;;;;;;2141858;66;1238;-69
2021/06/07 12:06:48;;;;;;;;;;;;;;;;;;2145655;59;1428;-69
2021/06/07 12:09:14;;;;;;;;;;;;;;;;;;2145811;66;1936;-69
2021/06/07 12:11:39;;;;;;;;;;;;;;;;;;2145994;66;1168;-69
2021/06/07 12:14:04;;;;;;;;;;;;;;;;;;2145702;66;1296;-69
2021/06/07 12:16:36;;;;;;;;;;;;;;;;;;2146471;59;1564;-69
2021/06/07 12:19:06;;;;;;;;;;;;;;;;;;2144927;59;1119;-69
2021/06/07 12:21:32;;;;;;;;;;;;;;;;;;2146032;66;1261;-69
2021/06/07 12:24:03;;;;;;;;;;;;;;;;;;2145506;66;1199;-69
2021/06/07 12:29:33;;;;;;;;;;;;;;;;;;2145140;59;1927;-69
2021/06/07 12:32:04;;;;;;;;;;;;;;;;;;2144573;66;1421;-69
2021/06/07 12:34:29;;;;;;;;;;;;;;;;;;2142553;67;1174;-69
2021/06/07 12:36:54;;;;;;;;;;;;;;;;;;2145387;66;1303;-69
2021/06/07 12:39:19;;;;;;;;;;;;;;;;;;2145661;66;1222;-69
2021/06/07 12:41:45;;;;;;;;;;;;;;;;;;2145318;66;1203;-69
2021/06/07 12:44:10;;;;;;;;;;;;;;;;;;2145706;58;1215;-69
2021/06/07 12:46:52;;;;;;;;;;;;;;;;;;2143838;66;1296;-69
2021/06/07 12:49:24;;;;;;;;;;;;;;;;;;2143835;66;1935;-69
2021/06/07 12:52:01;;;;;;;;;;;;;;;;;;2146754;66;1237;-69
2021/06/07 12:54:27;;;;;;;;;;;;;;;;;;2145371;66;1282;-69
2021/06/07 12:56:52;;;;;;;;;;;;;;;;;;2145591;66;1182;-69
2021/06/07 12:59:18;;;;;;;;;;;;;;;;;;2145880;66;1179;-69
2021/06/07 13:01:46;;;;;;;;;;;;;;;;;;2144631;66;1171;-69
2021/06/07 13:04:13;;;;;;;;;;;;;;;;;;2146018;66;1246;-69
2021/06/07 13:06:49;;;;;;;;;;;;;;;;;;2144158;66;1152;-69
2021/06/07 13:09:14;;;;;;;;;;;;;;;;;;2144446;66;1933;-69
2021/06/07 13:11:40;;;;;;;;;;;;;;;;;;2145353;66;1054;-69
2021/06/07 13:14:07;;;;;;;;;;;;;;;;;;2145345;66;1254;-69
2021/06/07 13:16:35;;;;;;;;;;;;;;;;;;2144538;59;1274;-69
2021/06/07 13:19:02;;;;;;;;;;;;;;;;;;2145170;66;1173;-69
2021/06/07 13:21:32;;;;;;;;;;;;;;;;;;2144342;66;1257;-69
2021/06/07 13:23:57;;;;;;;;;;;;;;;;;;2146409;66;1218;-69
2021/06/07 13:26:23;;;;;;;;;;;;;;;;;;2144902;66;1299;-69
2021/06/07 13:29:08;;;;;;;;;;;;;;;;;;2146387;58;1976;-69
2021/06/07 13:31:43;;;;;;;;;;;;;;;;;;2144677;66;2105;-68
2021/06/07 13:34:12;;;;;;;;;;;;;;;;;;2144859;66;1606;-68
2021/06/07 13:36:37;;;;;;;;;;;;;;;;;;2146835;66;1135;-68
2021/06/07 13:39:02;;;;;;;;;;;;;;;;;;2145966;66;1214;-68
2021/06/07 13:41:28;;;;;;;;;;;;;;;;;;2146533;66;1244;-68
2021/06/07 13:43:54;;;;;;;;;;;;;;;;;;2145508;59;1219;-68
2021/06/07 13:46:23;;;;;;;;;;;;;;;;;;2143986;66;1435;-68
2021/06/07 13:48:48;;;;;;;;;;;;;;;;;;2145707;66;1966;-68
2021/06/07 13:51:13;;;;;;;;;;;;;;;;;;2145121;66;1167;-68
2021/06/07 13:53:39;;;;;;;;;;;;;;;;;;2146811;66;1272;-68
2021/06/07 13:56:06;;;;;;;;;;;;;;;;;;2145484;59;1155;-68
2021/06/07 13:58:37;;;;;;;;;;;;;;;;;;2145657;66;1274;-68
2021/06/07 14:01:03;;;;;;;;;;;;;;;;;;2145252;66;1211;-68
2021/06/07 14:03:29;;;;;;;;;;;;;;;;;;2145406;66;1136;-68
2021/06/07 14:05:56;;;;;;;;;;;;;;;;;;2145336;66;1328;-68
2021/06/07 14:08:23;;;;;;;;;;;;;;;;;;2145775;59;1976;-68
2021/06/07 14:10:49;;;;;;;;;;;;;;;;;;2145330;66;1136;-69
2021/06/07 14:13:14;;;;;;;;;;;;;;;;;;2145394;66;1230;-69
2021/06/07 14:15:40;;;;;;;;;;;;;;;;;;2144846;59;1288;-69
2021/06/07 14:18:05;;;;;;;;;;;;;;;;;;2145674;66;1086;-68
2021/06/07 14:20:30;;;;;;;;;;;;;;;;;;2145724;66;1243;-69
2021/06/07 14:25:40;;;;;;;;;;;;;;;;;;2145996;59;1151;-69
2021/06/07 14:28:10;;;;;;;;;;;;;;;;;;2145060;66;1927;-69
2021/06/07 14:30:36;;;;;;;;;;;;;;;;;;2144513;66;1308;-69
2021/06/07 14:33:01;;;;;;;;;;;;;;;;;;2145412;66;1222;-69
2021/06/07 14:35:31;;;;;;;;;;;;;;;;;;2145579;66;1040;-68
2021/06/07 14:37:58;;;;;;;;;;;;;;;;;;2144851;66;1256;-69
2021/06/07 14:40:23;;;;;;;;;;;;;;;;;;2145811;66;1147;-68
2021/06/07 14:42:48;;;;;;;;;;;;;;;;;;2144711;66;1217;-69
2021/06/07 14:45:14;;;;;;;;;;;;;;;;;;2146142;58;1243;-68
2021/06/07 14:47:39;;;;;;;;;;;;;;;;;;2144106;58;1941;-69
2021/06/07 14:50:05;;;;;;;;;;;;;;;;;;2144737;66;1315;-69
2021/06/07 14:52:30;;;;;;;;;;;;;;;;;;2146072;66;1167;-68
2021/06/07 14:54:55;;;;;;;;;;;;;;;;;;2141931;66;1966;-69
2021/06/07 14:57:21;;;;;;;;;;;;;;;;;;2146264;66;1155;-68
2021/06/07 14:59:46;;;;;;;;;;;;;;;;;;2145523;66;1151;-68
2021/06/07 15:02:11;;;;;;;;;;;;;;;;;;2146354;66;1170;-68
2021/06/07 15:04:36;;;;;;;;;;;;;;;;;;2145715;66;1276;-68
2021/06/07 15:07:01;;;;;;;;;;;;;;;;;;2145519;66;1262;-68
2021/06/07 15:09:26;;;;;;;;;;;;;;;;;;2143867;66;1920;-68
2021/06/07 15:11:52;;;;;;;;;;;;;;;;;;2145988;66;1179;-68
2021/06/07 15:14:17;;;;;;;;;;;;;;;;;;2146033;66;1277;-68
2021/06/07 15:16:42;;;;;;;;;;;;;;;;;;2142833;59;1253;-68
2021/06/07 15:19:08;;;;;;;;;;;;;;;;;;2145748;66;1174;-68
2021/06/07 15:21:34;;;;;;;;;;;;;;;;;;2144825;59;1212;-68
2021/06/07 15:23:59;;;;;;;;;;;;;;;;;;2145451;66;1210;-68
2021/06/07 15:26:24;;;;;;;;;;;;;;;;;;2145272;66;1163;-69
2021/06/07 15:28:49;;;;;;;;;;;;;;;;;;2145185;59;1921;-69
2021/06/07 15:31:14;;;;;;;;;;;;;;;;;;2146036;66;1060;-68
2021/06/07 15:33:40;;;;;;;;;;;;;;;;;;2144107;66;1247;-68
2021/06/07 15:36:05;;;;;;;;;;;;;;;;;;2141988;66;1147;-68
2021/06/07 15:38:32;;;;;;;;;;;;;;;;;;2145418;66;1159;-68
2021/06/07 15:41:01;;;;;;;;;;;;;;;;;;2145484;66;1088;-68
2021/06/07 15:43:28;;;;;;;;;;;;;;;;;;2145448;58;1210;-68
2021/06/07 15:45:54;;;;;;;;;;;;;;;;;;2143287;66;1114;-68
2021/06/07 15:48:21;;;;;;;;;;;;;;;;;;2142430;66;1925;-68
2021/06/07 15:50:46;;;;;;;;;;;;;;;;;;2143087;66;1153;-68
2021/06/07 15:53:12;;;;;;;;;;;;;;;;;;2145105;66;1617;-67
2021/06/07 15:55:37;;;;;;;;;;;;;;;;;;2145310;66;1226;-67
2021/06/07 15:58:03;;;;;;;;;;;;;;;;;;2145222;66;1176;-66
2021/06/07 16:00:28;;;;;;;;;;;;;;;;;;2144749;66;1303;-66
2021/06/07 16:02:54;;;;;;;;;;;;;;;;;;2142268;66;1460;-65
2021/06/07 16:05:20;;;;;;;;;;;;;;;;;;2145371;66;1076;-65
2021/06/07 16:07:45;;;;;;;;;;;;;;;;;;2146038;59;1986;-66
2021/06/07 16:10:11;;;;;;;;;;;;;;;;;;2145748;66;1282;-68
2021/06/07 16:12:36;;;;;;;;;;;;;;;;;;2145482;66;1112;-66
2021/06/07 16:15:02;;;;;;;;;;;;;;;;;;2145020;59;1289;-66
2021/06/07 16:17:28;;;;;;;;;;;;;;;;;;2145349;66;1153;-66
2021/06/07 16:22:18;;;;;;;;;;;;;;;;;;2145241;59;1120;-66
2021/06/07 16:24:43;;;;;;;;;;;;;;;;;;2145003;66;1189;-67
2021/06/07 16:27:09;;;;;;;;;;;;;;;;;;2141677;66;1743;-66
2021/06/07 16:29:35;;;;;;;;;;;;;;;;;;2146352;66;1921;-66
2021/06/07 16:32:00;;;;;;;;;;;;;;;;;;2145113;66;1410;-66
2021/06/07 16:34:25;;;;;;;;;;;;;;;;;;2143739;66;1213;-66
2021/06/07 16:36:51;;;;;;;;;;;;;;;;;;2145331;66;1629;-65
2021/06/07 16:39:16;;;;;;;;;;;;;;;;;;2145050;66;1270;-65
2021/06/07 16:41:42;;;;;;;;;;;;;;;;;;2145245;66;1140;-66
2021/06/07 16:44:07;;;;;;;;;;;;;;;;;;2141358;59;2143;-66
2021/06/07 16:46:32;;;;;;;;;;;;;;;;;;2144921;59;1212;-66
2021/06/07 16:48:57;;;;;;;;;;;;;;;;;;2144193;59;2017;-66
2021/06/07 16:51:24;;;;;;;;;;;;;;;;;;2145726;66;1163;-67
2021/06/07 16:53:49;;;;;;;;;;;;;;;;;;2145336;59;1411;-65
2021/06/07 16:56:14;;;;;;;;;;;;;;;;;;2145803;66;1236;-67
2021/06/07 16:58:39;;;;;;;;;;;;;;;;;;2142077;66;1239;-66
2021/06/07 17:01:05;;;;;;;;;;;;;;;;;;2145071;59;1177;-66
2021/06/07 17:03:30;;;;;;;;;;;;;;;;;;2145715;66;1601;-69
2021/06/07 17:05:55;;;;;;;;;;;;;;;;;;2145891;66;1147;-67